createdAt,value
2019-02-07T00:01:08.496Z,11.45
2019-02-07T00:03:38.125Z,11.24
2019-02-07T00:06:08.004Z,10.48
2019-02-07T00:08:37.563Z,10.74
2019-02-07T00:11:07.349Z,11.49
2019-02-07T00:13:36.921Z,10.70
2019-02-07T00:16:06.484Z,10.72
2019-02-07T00:18:36.157Z,11.14
2019-02-07T00:21:06.269Z,10.93
2019-02-07T00:23:35.897Z,11.10
2019-02-07T00:26:05.675Z,11.00
2019-02-07T00:28:35.446Z,10.52
2019-02-07T00:31:05.327Z,10.53
2019-02-07T00:33:35.464Z,10.60
2019-02-07T00:36:05.154Z,10.81
2019-02-07T00:38:34.914Z,10.14
2019-02-07T00:41:04.540Z,10.42
2019-02-07T00:43:34.089Z,10.59
2019-02-07T00:46:03.830Z,10.75
2019-02-07T00:48:33.718Z,10.61
2019-02-07T00:51:03.326Z,10.47
2019-02-07T00:53:32.959Z,10.30
2019-02-07T00:56:02.511Z,10.46
2019-02-07T00:58:32.106Z,10.44
2019-02-07T01:01:01.682Z,10.64
2019-02-07T01:03:31.263Z,10.54
2019-02-07T01:06:00.966Z,10.75
2019-02-07T01:08:30.729Z,10.17
2019-02-07T01:11:00.313Z,10.45
2019-02-07T01:13:30.044Z,10.22
2019-02-07T01:15:59.730Z,10.51
2019-02-07T01:18:29.526Z,10.59
2019-02-07T01:20:59.157Z,10.69
2019-02-07T01:23:28.884Z,10.79
2019-02-07T01:25:58.575Z,10.12
2019-02-07T01:28:28.257Z,10.58
2019-02-07T01:30:58.624Z,10.14
2019-02-07T01:33:28.674Z,10.51
2019-02-07T01:35:58.813Z,10.39
2019-02-07T01:38:29.251Z,10.28
2019-02-07T01:40:59.024Z,9.65
2019-02-07T01:43:28.623Z,9.81
2019-02-07T01:45:58.645Z,10.56
2019-02-07T01:48:28.652Z,10.28
2019-02-07T01:50:58.352Z,10.75
2019-02-07T01:53:27.967Z,9.98
2019-02-07T01:55:57.630Z,9.66
2019-02-07T01:58:27.290Z,10.08
2019-02-07T02:00:57.288Z,9.85
2019-02-07T02:03:26.767Z,9.67
2019-02-07T02:05:56.383Z,9.71
2019-02-07T02:08:26.027Z,9.79
2019-02-07T02:10:55.788Z,10.17
2019-02-07T02:13:25.439Z,9.74
2019-02-07T02:15:55.092Z,9.86
2019-02-07T02:18:24.750Z,9.81
2019-02-07T02:20:54.317Z,10.12
2019-02-07T02:23:23.872Z,10.00
2019-02-07T02:25:53.604Z,10.02
2019-02-07T02:28:23.175Z,9.74
2019-02-07T02:30:52.886Z,9.95
2019-02-07T02:33:22.588Z,9.90
2019-02-07T02:35:52.719Z,9.72
2019-02-07T02:38:22.303Z,9.58
2019-02-07T02:40:51.944Z,9.76
2019-02-07T02:43:22.124Z,10.14
2019-02-07T02:45:51.764Z,9.44
2019-02-07T02:48:21.353Z,9.54
2019-02-07T02:50:50.939Z,9.67
2019-02-07T02:53:20.524Z,9.59
2019-02-07T02:55:50.434Z,9.62
2019-02-07T02:58:20.613Z,9.43
2019-02-07T03:01:07.664Z,9.58
2019-02-07T03:03:39.351Z,10.03
2019-02-07T03:06:26.673Z,9.78
2019-02-07T03:09:03.942Z,9.44
2019-02-07T03:11:53.384Z,9.86
2019-02-07T03:14:25.159Z,9.51
2019-02-07T03:16:56.432Z,9.45
2019-02-07T03:19:36.911Z,9.78
2019-02-07T03:22:24.291Z,9.85
2019-02-07T03:25:13.637Z,9.50
2019-02-07T03:27:59.969Z,9.50
2019-02-07T03:30:37.715Z,9.62
2019-02-07T03:33:15.195Z,9.65
2019-02-07T03:35:52.629Z,9.24
2019-02-07T03:38:33.881Z,9.37
2019-02-07T03:41:06.482Z,9.65
2019-02-07T03:43:46.412Z,9.61
2019-02-07T03:46:26.814Z,9.32
2019-02-07T03:49:01.027Z,8.99
2019-02-07T03:51:47.181Z,9.19
2019-02-07T03:54:34.817Z,8.96
2019-02-07T03:57:06.437Z,9.25
2019-02-07T03:59:40.178Z,8.87
2019-02-07T04:02:11.797Z,8.86
2019-02-07T04:04:51.476Z,9.17
2019-02-07T04:07:23.424Z,9.04
2019-02-07T04:10:03.137Z,8.94
2019-02-07T04:12:50.607Z,8.88
2019-02-07T04:15:38.143Z,8.44
2019-02-07T04:18:21.417Z,9.13
2019-02-07T04:21:08.877Z,9.43
2019-02-07T04:23:51.747Z,8.54
2019-02-07T04:26:25.801Z,9.24
2019-02-07T04:28:57.012Z,8.67
2019-02-07T04:31:30.796Z,8.22
2019-02-07T04:34:18.535Z,8.53
2019-02-07T04:36:55.515Z,8.85
2019-02-07T04:39:32.613Z,8.76
2019-02-07T04:42:04.746Z,8.84
2019-02-07T04:44:51.888Z,8.66
2019-02-07T04:47:33.612Z,8.82
2019-02-07T04:50:17.539Z,8.53
2019-02-07T04:52:54.892Z,8.88
2019-02-07T04:55:35.292Z,8.84
2019-02-07T04:58:19.100Z,8.69
2019-02-07T05:00:59.157Z,8.71
2019-02-07T05:03:33.096Z,9.01
2019-02-07T05:06:20.301Z,9.19
2019-02-07T05:08:57.531Z,9.14
2019-02-07T05:11:29.113Z,9.14
2019-02-07T05:14:06.623Z,9.33
2019-02-07T05:16:43.673Z,9.07
2019-02-07T05:19:31.965Z,9.53
2019-02-07T05:22:04.229Z,9.50
2019-02-07T05:24:41.326Z,9.57
2019-02-07T05:27:27.422Z,9.48
2019-02-07T05:30:04.836Z,9.45
2019-02-07T05:32:38.897Z,9.44
2019-02-07T05:35:25.736Z,9.62
2019-02-07T05:37:57.036Z,9.08
2019-02-07T05:40:28.239Z,9.53
2019-02-07T05:42:59.375Z,9.83
2019-02-07T05:45:46.340Z,9.38
2019-02-07T05:48:18.188Z,9.90
2019-02-07T05:50:53.633Z,9.27
2019-02-07T05:53:27.331Z,9.64
2019-02-07T05:56:14.201Z,9.34
2019-02-07T05:59:01.308Z,9.45
2019-02-07T06:01:48.964Z,9.23
2019-02-07T06:04:30.065Z,9.71
2019-02-07T06:07:07.517Z,9.57
2019-02-07T06:09:50.423Z,9.47
2019-02-07T06:12:30.838Z,9.32
2019-02-07T06:15:05.021Z,9.93
2019-02-07T06:17:36.282Z,9.78
2019-02-07T06:20:11.675Z,9.46
2019-02-07T06:22:59.582Z,9.80
2019-02-07T06:25:39.589Z,9.21
2019-02-07T06:28:13.544Z,9.00
2019-02-07T06:30:47.926Z,8.97
2019-02-07T06:33:37.466Z,9.15
2019-02-07T06:36:17.800Z,9.20
2019-02-07T06:39:07.865Z,9.45
2019-02-07T06:41:48.121Z,9.18
2019-02-07T06:44:22.246Z,9.14
2019-02-07T06:46:56.472Z,9.22
2019-02-07T06:49:44.301Z,9.19
2019-02-07T06:52:21.358Z,9.13
2019-02-07T06:55:09.176Z,9.18
2019-02-07T06:57:56.537Z,8.98
2019-02-07T07:00:30.687Z,9.11
2019-02-07T07:03:02.956Z,8.64
2019-02-07T07:05:34.315Z,8.93
2019-02-07T07:08:20.777Z,9.14
2019-02-07T07:10:59.463Z,9.20
2019-02-07T07:13:36.562Z,8.92
2019-02-07T07:16:11.819Z,9.49
2019-02-07T07:18:49.946Z,9.40
2019-02-07T07:21:28.402Z,9.36
2019-02-07T07:24:05.644Z,9.21
2019-02-07T07:26:52.353Z,9.45
2019-02-07T07:29:21.900Z,9.60
2019-02-07T07:32:02.087Z,9.36
2019-02-07T07:34:49.426Z,9.38
2019-02-07T07:37:39.070Z,9.56
2019-02-07T07:40:16.674Z,9.45
2019-02-07T07:42:54.151Z,9.55
2019-02-07T07:45:41.471Z,10.05
2019-02-07T07:48:15.265Z,10.00
2019-02-07T07:50:49.540Z,9.59
2019-02-07T07:53:34.352Z,10.48
2019-02-07T07:56:11.877Z,9.62
2019-02-07T07:58:46.290Z,9.91
2019-02-07T08:01:33.735Z,9.90
2019-02-07T08:04:07.963Z,9.97
2019-02-07T08:06:51.563Z,9.97
2019-02-07T08:09:41.415Z,10.13
2019-02-07T08:12:12.680Z,9.57
2019-02-07T08:15:00.322Z,9.36
2019-02-07T08:17:49.974Z,10.10
2019-02-07T08:20:37.714Z,9.86
2019-02-07T08:23:09.376Z,9.85
2019-02-07T08:25:56.662Z,9.84
2019-02-07T08:28:39.472Z,9.61
2019-02-07T08:31:19.755Z,9.38
2019-02-07T08:33:53.793Z,10.32
2019-02-07T08:36:31.322Z,9.81
2019-02-07T08:39:05.574Z,9.83
2019-02-07T08:41:40.725Z,10.12
2019-02-07T08:44:14.171Z,10.26
2019-02-07T08:47:01.405Z,9.84
2019-02-07T08:49:35.662Z,9.85
2019-02-07T08:52:10.239Z,9.86
2019-02-07T08:54:56.850Z,9.96
2019-02-07T08:57:30.861Z,10.13
2019-02-07T09:00:10.752Z,10.31
2019-02-07T09:02:51.623Z,10.13
2019-02-07T09:05:15.236Z,10.04
2019-02-07T09:08:02.951Z,9.68
2019-02-07T09:10:38.816Z,9.75
2019-02-07T09:13:10.145Z,10.33
2019-02-07T09:15:41.428Z,10.53
2019-02-07T09:18:28.151Z,9.64
2019-02-07T09:21:12.540Z,9.92
2019-02-07T09:23:46.910Z,10.39
2019-02-07T09:26:25.303Z,10.26
2019-02-07T09:28:59.826Z,10.52
2019-02-07T09:31:36.946Z,10.06
2019-02-07T09:34:06.801Z,10.75
2019-02-07T09:36:38.145Z,10.71
2019-02-07T09:39:26.985Z,10.53
2019-02-07T09:42:01.297Z,10.80
2019-02-07T09:44:39.606Z,10.78
2019-02-07T09:47:27.125Z,10.49
2019-02-07T09:49:59.285Z,10.55
2019-02-07T09:52:46.832Z,10.16
2019-02-07T09:55:21.124Z,10.58
2019-02-07T09:57:52.943Z,10.83
2019-02-07T10:00:39.831Z,10.57
2019-02-07T10:03:27.415Z,10.45
2019-02-07T10:05:58.755Z,10.10
2019-02-07T10:08:38.593Z,10.73
2019-02-07T10:11:09.901Z,10.21
2019-02-07T10:13:48.038Z,10.86
2019-02-07T10:16:34.555Z,10.58
2019-02-07T10:19:06.295Z,10.50
2019-02-07T10:21:55.699Z,11.03
2019-02-07T10:24:30.445Z,10.77
2019-02-07T10:27:01.875Z,10.70
2019-02-07T10:29:38.917Z,10.67
2019-02-07T10:32:11.226Z,11.43
2019-02-07T10:34:42.466Z,11.00
2019-02-07T10:37:13.794Z,11.05
2019-02-07T10:39:45.355Z,10.63
2019-02-07T10:42:16.612Z,10.91
2019-02-07T10:45:01.838Z,11.71
2019-02-07T10:47:49.752Z,10.64
2019-02-07T10:50:38.187Z,11.78
2019-02-07T10:53:12.178Z,10.93
2019-02-07T10:55:59.853Z,11.32
2019-02-07T10:58:46.879Z,10.96
2019-02-07T11:01:18.650Z,11.22
2019-02-07T11:03:56.254Z,10.68
2019-02-07T11:06:30.406Z,11.17
2019-02-07T11:09:04.670Z,11.32
2019-02-07T11:11:52.026Z,11.04
2019-02-07T11:14:25.950Z,11.03
2019-02-07T11:17:13.409Z,10.74
2019-02-07T11:19:54.516Z,11.06
2019-02-07T11:22:31.896Z,11.27
2019-02-07T11:25:03.217Z,11.43
2019-02-07T11:27:51.270Z,11.57
2019-02-07T11:30:40.515Z,11.26
2019-02-07T11:33:12.147Z,11.62
2019-02-07T11:35:59.943Z,11.58
2019-02-07T11:38:31.269Z,11.40
2019-02-07T11:41:06.703Z,11.07
2019-02-07T11:43:38.197Z,11.86
2019-02-07T11:46:25.307Z,12.29
2019-02-07T11:49:06.936Z,12.29
2019-02-07T11:51:43.245Z,11.73
2019-02-07T11:54:32.934Z,12.23
2019-02-07T11:57:07.088Z,12.30
2019-02-07T11:59:54.664Z,12.45
2019-02-07T12:02:26.039Z,12.54
2019-02-07T12:05:00.261Z,12.26
2019-02-07T12:07:40.204Z,12.42
2019-02-07T12:10:29.938Z,12.06
2019-02-07T12:12:59.344Z,12.21
2019-02-07T12:15:33.736Z,11.48
2019-02-07T12:18:05.063Z,12.29
2019-02-07T12:20:36.979Z,12.47
2019-02-07T12:23:15.329Z,12.16
2019-02-07T12:25:47.380Z,12.36
2019-02-07T12:28:37.796Z,12.36
2019-02-07T12:31:18.470Z,12.18
2019-02-07T12:33:56.336Z,12.89
2019-02-07T12:36:29.139Z,12.40
2019-02-07T12:39:00.739Z,12.04
2019-02-07T12:41:47.154Z,11.79
2019-02-07T12:44:30.803Z,12.78
2019-02-07T12:47:03.922Z,12.10
2019-02-07T12:49:35.142Z,12.45
2019-02-07T12:52:18.900Z,12.45
2019-02-07T12:55:05.605Z,12.48
2019-02-07T12:57:50.386Z,12.01
2019-02-07T13:00:34.012Z,12.03
2019-02-07T13:03:17.845Z,12.86
2019-02-07T13:05:47.480Z,12.67
2019-02-07T13:08:19.552Z,12.30
2019-02-07T13:11:06.583Z,11.94
2019-02-07T13:13:41.766Z,12.57
2019-02-07T13:16:13.150Z,12.06
2019-02-07T13:18:59.673Z,12.49
2019-02-07T13:21:33.961Z,11.98
2019-02-07T13:24:07.974Z,12.61
2019-02-07T13:26:55.354Z,12.01
2019-02-07T13:29:39.513Z,11.63
2019-02-07T13:32:14.483Z,12.04
2019-02-07T13:34:51.468Z,12.12
2019-02-07T13:37:29.155Z,12.05
2019-02-07T13:40:05.887Z,12.44
2019-02-07T13:42:49.432Z,11.89
2019-02-07T13:45:23.564Z,11.65
2019-02-07T13:48:00.899Z,11.79
2019-02-07T13:50:38.434Z,12.31
2019-02-07T13:53:18.756Z,11.68
2019-02-07T13:55:58.581Z,12.57
2019-02-07T13:58:31.051Z,11.58
2019-02-07T14:01:08.328Z,12.12
2019-02-07T14:03:39.844Z,11.85
2019-02-07T14:06:18.425Z,11.79
2019-02-07T14:09:02.724Z,12.35
2019-02-07T14:11:50.165Z,12.29
2019-02-07T14:14:37.407Z,12.09
2019-02-07T14:17:08.959Z,12.12
2019-02-07T14:20:03.688Z,12.53
2019-02-07T14:22:41.754Z,12.76
2019-02-07T14:25:14.313Z,12.02
2019-02-07T14:28:02.491Z,12.32
2019-02-07T14:30:40.952Z,12.45
2019-02-07T14:33:28.519Z,11.87
2019-02-07T14:36:12.258Z,12.29
2019-02-07T14:38:52.591Z,11.36
2019-02-07T14:41:32.798Z,12.20
2019-02-07T14:44:04.265Z,12.23
2019-02-07T14:46:34.362Z,12.23
2019-02-07T14:49:04.039Z,12.33
2019-02-07T14:51:33.841Z,11.55
2019-02-07T14:54:03.803Z,11.41
2019-02-07T14:56:33.802Z,12.29
2019-02-07T14:59:06.210Z,12.06
2019-02-07T15:01:35.844Z,11.94
2019-02-07T15:04:06.221Z,11.87
2019-02-07T15:06:36.127Z,11.96
2019-02-07T15:09:10.438Z,12.32
2019-02-07T15:11:40.098Z,11.92
2019-02-07T15:14:09.825Z,12.21
2019-02-07T15:16:40.995Z,12.25
2019-02-07T15:19:11.350Z,11.69
2019-02-07T15:21:41.109Z,11.99
2019-02-07T15:24:11.174Z,11.62
2019-02-07T15:26:41.772Z,11.38
2019-02-07T15:29:11.506Z,11.78
2019-02-07T15:31:41.127Z,12.01
2019-02-07T15:34:10.811Z,11.38
2019-02-07T15:36:40.598Z,12.00
2019-02-07T15:39:12.664Z,11.97
2019-02-07T15:41:42.541Z,11.49
2019-02-07T15:44:12.263Z,11.69
2019-02-07T15:46:42.044Z,11.52
2019-02-07T15:49:11.739Z,11.52
2019-02-07T15:51:41.901Z,11.77
2019-02-07T15:54:11.700Z,11.02
2019-02-07T15:56:41.857Z,12.28
2019-02-07T15:59:15.852Z,11.38
2019-02-07T16:01:50.399Z,11.44
2019-02-07T16:04:21.654Z,11.96
2019-02-07T16:06:51.423Z,11.64
2019-02-07T16:09:21.118Z,11.53
2019-02-07T16:11:51.914Z,11.68
2019-02-07T16:14:21.906Z,11.17
2019-02-07T16:16:51.670Z,11.58
2019-02-07T16:19:21.679Z,11.37
2019-02-07T16:21:51.508Z,10.97
2019-02-07T16:24:21.295Z,11.62
2019-02-07T16:26:51.490Z,11.28
2019-02-07T16:29:22.313Z,11.18
2019-02-07T16:31:53.648Z,11.35
2019-02-07T16:34:23.371Z,11.30
2019-02-07T16:36:53.051Z,11.29
2019-02-07T16:39:23.526Z,11.30
2019-02-07T16:41:53.267Z,11.44
2019-02-07T16:44:23.332Z,10.81
2019-02-07T16:46:54.467Z,11.26
2019-02-07T16:49:24.199Z,11.55
2019-02-07T16:51:54.237Z,11.17
2019-02-07T16:54:23.998Z,11.56
2019-02-07T16:56:53.712Z,11.11
2019-02-07T16:59:23.537Z,11.41
2019-02-07T17:01:53.190Z,11.11
2019-02-07T17:04:22.908Z,10.76
2019-02-07T17:06:52.665Z,11.17
2019-02-07T17:09:24.331Z,11.68
2019-02-07T17:11:54.002Z,11.43
2019-02-07T17:14:24.656Z,11.07
2019-02-07T17:16:54.445Z,10.99
2019-02-07T17:19:24.202Z,11.28
2019-02-07T17:21:53.961Z,11.34
2019-02-07T17:24:23.751Z,11.05
2019-02-07T17:26:53.806Z,11.00
2019-02-07T17:29:23.830Z,10.92
2019-02-07T17:31:53.511Z,11.24
2019-02-07T17:34:23.216Z,11.22
2019-02-07T17:36:52.948Z,11.42
2019-02-07T17:39:22.610Z,11.11
2019-02-07T17:41:52.480Z,11.14
2019-02-07T17:44:22.645Z,10.98
2019-02-07T17:46:52.359Z,11.02
2019-02-07T17:49:22.122Z,11.09
2019-02-07T17:51:51.840Z,11.29
2019-02-07T17:54:21.446Z,10.98
2019-02-07T17:56:51.128Z,10.48
2019-02-07T17:59:21.141Z,11.13
2019-02-07T18:01:50.890Z,10.38
2019-02-07T18:04:20.430Z,11.02
2019-02-07T18:06:50.184Z,10.34
2019-02-07T18:09:20.220Z,10.76
2019-02-07T18:11:49.828Z,10.89
2019-02-07T18:14:27.504Z,10.67
2019-02-07T18:16:57.138Z,10.68
2019-02-07T18:19:26.931Z,10.64
2019-02-07T18:21:57.328Z,10.05
2019-02-07T18:24:27.231Z,10.56
2019-02-07T18:26:57.357Z,10.49
2019-02-07T18:29:27.129Z,10.67
2019-02-07T18:31:56.860Z,10.40
2019-02-07T18:34:26.572Z,10.08
2019-02-07T18:36:56.238Z,10.05
2019-02-07T18:39:25.849Z,9.99
2019-02-07T18:41:55.953Z,10.29
2019-02-07T18:44:25.623Z,10.64
2019-02-07T18:46:55.534Z,10.42
2019-02-07T18:49:26.166Z,10.67
2019-02-07T18:51:55.782Z,10.28
2019-02-07T18:54:25.710Z,9.94
2019-02-07T18:56:55.453Z,9.75
2019-02-07T18:59:25.162Z,9.98
2019-02-07T19:01:54.727Z,10.29
2019-02-07T19:04:24.550Z,10.06
2019-02-07T19:06:54.180Z,9.75
2019-02-07T19:09:23.836Z,10.12
2019-02-07T19:11:53.810Z,10.13
2019-02-07T19:14:23.377Z,9.92
2019-02-07T19:16:52.980Z,9.67
2019-02-07T19:19:22.806Z,10.03
2019-02-07T19:22:11.871Z,10.41
2019-02-07T19:24:41.652Z,10.17
2019-02-07T19:27:11.486Z,10.09
2019-02-07T19:29:41.211Z,9.99
2019-02-07T19:32:10.787Z,10.16
2019-02-07T19:34:40.543Z,10.34
2019-02-07T19:37:10.706Z,10.12
2019-02-07T19:39:40.481Z,9.93
2019-02-07T19:42:10.596Z,9.73
2019-02-07T19:44:40.365Z,10.07
2019-02-07T19:47:10.117Z,10.20
2019-02-07T19:49:40.180Z,10.40
2019-02-07T19:52:10.216Z,9.84
2019-02-07T19:54:39.829Z,10.30
2019-02-07T19:57:09.699Z,10.14
2019-02-07T19:59:39.658Z,10.01
2019-02-07T20:02:09.780Z,9.61
2019-02-07T20:04:39.707Z,10.27
2019-02-07T20:07:09.918Z,10.16
2019-02-07T20:09:39.738Z,10.05
2019-02-07T20:12:09.958Z,10.13
2019-02-07T20:14:39.826Z,9.87
2019-02-07T20:17:09.516Z,9.87
2019-02-07T20:19:39.342Z,9.71
2019-02-07T20:22:19.830Z,9.88
2019-02-07T20:24:46.151Z,9.84
2019-02-07T20:27:13.655Z,10.10
2019-02-07T20:29:43.546Z,9.66
2019-02-07T20:32:13.388Z,9.74
2019-02-07T20:34:43.289Z,9.76
2019-02-07T20:37:13.554Z,9.93
2019-02-07T20:39:43.242Z,9.53
2019-02-07T20:42:12.970Z,9.78
2019-02-07T20:44:42.614Z,9.41
2019-02-07T20:47:12.691Z,9.11
2019-02-07T20:49:44.168Z,9.49
2019-02-07T20:52:14.167Z,9.52
2019-02-07T20:54:44.017Z,9.52
2019-02-07T20:57:14.162Z,10.03
2019-02-07T20:59:44.106Z,9.30
2019-02-07T21:02:14.020Z,9.84
2019-02-07T21:04:43.731Z,9.37
2019-02-07T21:07:13.576Z,10.24
2019-02-07T21:09:43.742Z,9.77
2019-02-07T21:12:13.291Z,9.67
2019-02-07T21:14:43.038Z,9.63
2019-02-07T21:17:12.791Z,10.12
2019-02-07T21:19:42.541Z,9.68
2019-02-07T21:22:12.327Z,9.64
2019-02-07T21:24:42.451Z,9.25
2019-02-07T21:27:12.267Z,9.63
2019-02-07T21:29:42.151Z,9.46
2019-02-07T21:32:11.930Z,9.11
2019-02-07T21:34:41.734Z,9.73
2019-02-07T21:37:11.301Z,9.62
2019-02-07T21:39:41.697Z,9.17
2019-02-07T21:42:11.352Z,9.66
2019-02-07T21:44:41.194Z,9.96
2019-02-07T21:47:10.906Z,9.67
2019-02-07T21:49:40.661Z,9.65
2019-02-07T21:52:10.257Z,9.37
2019-02-07T21:54:39.993Z,9.05
2019-02-07T21:57:10.144Z,10.04
2019-02-07T21:59:39.750Z,9.56
2019-02-07T22:02:09.761Z,9.70
2019-02-07T22:04:39.761Z,9.83
2019-02-07T22:07:09.326Z,9.87
2019-02-07T22:09:39.014Z,9.64
2019-02-07T22:12:08.904Z,9.55
2019-02-07T22:14:38.576Z,9.69
2019-02-07T22:17:09.395Z,9.89
2019-02-07T22:19:39.286Z,9.25
2019-02-07T22:22:09.250Z,9.91
2019-02-07T22:24:38.882Z,9.26
2019-02-07T22:27:08.610Z,9.55
2019-02-07T22:29:38.294Z,9.95
2019-02-07T22:32:08.093Z,9.82
2019-02-07T22:34:37.801Z,9.48
2019-02-07T22:37:07.699Z,9.70
2019-02-07T22:39:37.489Z,9.68
2019-02-07T22:42:07.164Z,9.68
2019-02-07T22:44:36.945Z,9.52
2019-02-07T22:47:06.601Z,9.42
2019-02-07T22:49:36.133Z,9.73
2019-02-07T22:52:06.635Z,9.61
2019-02-07T22:54:36.740Z,9.60
2019-02-07T22:57:06.488Z,9.78
2019-02-07T22:59:36.361Z,9.98
2019-02-07T23:02:08.296Z,9.66
2019-02-07T23:04:38.085Z,9.57
2019-02-07T23:07:08.060Z,9.80
2019-02-07T23:09:38.028Z,9.86
2019-02-07T23:12:07.933Z,9.88
2019-02-07T23:14:37.674Z,9.35
2019-02-07T23:17:07.531Z,9.84
2019-02-07T23:19:37.208Z,9.83
2019-02-07T23:22:07.372Z,9.71
2019-02-07T23:24:37.272Z,9.97
2019-02-07T23:27:07.323Z,10.10
2019-02-07T23:29:37.037Z,9.86
2019-02-07T23:32:07.130Z,9.53
2019-02-07T23:34:37.098Z,10.17
2019-02-07T23:37:06.794Z,9.27
2019-02-07T23:39:36.487Z,9.97
2019-02-07T23:42:06.619Z,9.44
2019-02-07T23:44:36.770Z,9.53
2019-02-07T23:47:06.414Z,9.53
2019-02-07T23:49:36.249Z,8.95
2019-02-07T23:52:05.923Z,9.51
2019-02-07T23:54:36.092Z,8.86
2019-02-07T23:57:05.957Z,9.48
2019-02-07T23:59:36.040Z,9.19
